sensor_id;sensor_type;location;lat;lon;timestamp;noise_LAeq;noise_LA_min;noise_LA_max;noise_LA01;noise_LA95
77134;Laerm;25175;50.140;18.990;2023-01-16T00:01:33;34.84;32.69;38.27;;
77134;Laerm;25175;50.140;18.990;2023-01-16T00:04:39;34.98;32.91;43.60;;
77134;Laerm;25175;50.140;18.990;2023-01-16T00:07:43;35.21;33.22;42.33;;
77134;Laerm;25175;50.140;18.990;2023-01-16T00:10:50;35.55;33.31;42.59;;
77134;Laerm;25175;50.140;18.990;2023-01-16T00:13:58;35.91;33.54;51.01;;
77134;Laerm;25175;50.140;18.990;2023-01-16T00:17:04;35.61;33.38;40.41;;
77134;Laerm;25175;50.140;18.990;2023-01-16T00:20:10;39.33;33.20;56.02;;
77134;Laerm;25175;50.140;18.990;2023-01-16T00:23:16;36.29;33.76;43.66;;
77134;Laerm;25175;50.140;18.990;2023-01-16T00:26:21;36.18;33.36;61.33;;
77134;Laerm;25175;50.140;18.990;2023-01-16T00:29:29;39.46;33.63;61.74;;
77134;Laerm;25175;50.140;18.990;2023-01-16T00:32:34;36.35;34.16;50.88;;
77134;Laerm;25175;50.140;18.990;2023-01-16T00:35:39;36.01;33.58;41.47;;
77134;Laerm;25175;50.140;18.990;2023-01-16T00:38:43;35.84;33.68;38.84;;
77134;Laerm;25175;50.140;18.990;2023-01-16T00:41:49;36.30;33.55;41.92;;
77134;Laerm;25175;50.140;18.990;2023-01-16T00:44:56;36.49;33.99;41.60;;
77134;Laerm;25175;50.140;18.990;2023-01-16T00:48:02;37.84;33.67;45.70;;
77134;Laerm;25175;50.140;18.990;2023-01-16T00:51:06;35.87;33.59;40.71;;
77134;Laerm;25175;50.140;18.990;2023-01-16T00:54:11;36.13;33.10;40.01;;
77134;Laerm;25175;50.140;18.990;2023-01-16T00:57:16;36.81;33.97;50.80;;
77134;Laerm;25175;50.140;18.990;2023-01-16T01:00:24;36.17;33.44;43.27;;
77134;Laerm;25175;50.140;18.990;2023-01-16T01:03:29;36.12;33.54;40.79;;
77134;Laerm;25175;50.140;18.990;2023-01-16T01:06:35;36.45;33.88;43.76;;
77134;Laerm;25175;50.140;18.990;2023-01-16T01:09:39;37.43;33.68;66.72;;
77134;Laerm;25175;50.140;18.990;2023-01-16T01:12:45;36.71;33.48;61.31;;
77134;Laerm;25175;50.140;18.990;2023-01-16T01:15:53;39.70;34.45;51.85;;
77134;Laerm;25175;50.140;18.990;2023-01-16T01:18:58;38.38;34.66;44.95;;
77134;Laerm;25175;50.140;18.990;2023-01-16T01:22:03;37.80;33.96;51.70;;
77134;Laerm;25175;50.140;18.990;2023-01-16T01:25:09;44.14;33.85;64.22;;
77134;Laerm;25175;50.140;18.990;2023-01-16T01:28:13;36.09;33.79;42.76;;
77134;Laerm;25175;50.140;18.990;2023-01-16T01:31:23;36.63;33.79;44.02;;
77134;Laerm;25175;50.140;18.990;2023-01-16T01:34:27;36.19;33.22;63.06;;
77134;Laerm;25175;50.140;18.990;2023-01-16T01:37:36;35.92;33.71;50.68;;
77134;Laerm;25175;50.140;18.990;2023-01-16T01:40:40;36.53;34.13;50.61;;
77134;Laerm;25175;50.140;18.990;2023-01-16T01:43:50;36.38;33.86;52.93;;
77134;Laerm;25175;50.140;18.990;2023-01-16T01:46:59;36.72;33.85;41.75;;
77134;Laerm;25175;50.140;18.990;2023-01-16T01:50:20;36.08;33.82;42.70;;
77134;Laerm;25175;50.140;18.990;2023-01-16T01:53:32;36.62;33.37;52.56;;
77134;Laerm;25175;50.140;18.990;2023-01-16T01:56:45;36.72;33.77;42.83;;
77134;Laerm;25175;50.140;18.990;2023-01-16T02:00:05;37.99;33.90;43.82;;
77134;Laerm;25175;50.140;18.990;2023-01-16T02:03:24;36.61;33.80;43.91;;
77134;Laerm;25175;50.140;18.990;2023-01-16T02:06:42;36.26;33.97;43.71;;
77134;Laerm;25175;50.140;18.990;2023-01-16T02:09:54;36.39;33.91;42.05;;
77134;Laerm;25175;50.140;18.990;2023-01-16T02:13:01;36.55;33.80;50.29;;
77134;Laerm;25175;50.140;18.990;2023-01-16T02:16:06;36.34;33.84;41.42;;
77134;Laerm;25175;50.140;18.990;2023-01-16T02:19:42;36.91;33.96;41.40;;
77134;Laerm;25175;50.140;18.990;2023-01-16T02:23:45;36.69;33.91;43.11;;
77134;Laerm;25175;50.140;18.990;2023-01-16T02:27:28;36.32;33.78;41.51;;
77134;Laerm;25175;50.140;18.990;2023-01-16T02:31:03;37.13;34.35;41.29;;
77134;Laerm;25175;50.140;18.990;2023-01-16T02:34:38;37.23;34.31;42.78;;
77134;Laerm;25175;50.140;18.990;2023-01-16T02:37:51;38.33;33.68;51.68;;
77134;Laerm;25175;50.140;18.990;2023-01-16T02:41:14;36.98;34.04;43.83;;
77134;Laerm;25175;50.140;18.990;2023-01-16T02:44:36;38.88;34.56;43.31;;
77134;Laerm;25175;50.140;18.990;2023-01-16T02:48:01;43.01;35.13;59.39;;
77134;Laerm;25175;50.140;18.990;2023-01-16T02:51:23;37.97;35.10;43.04;;
77134;Laerm;25175;50.140;18.990;2023-01-16T02:54:41;38.57;35.30;47.41;;
77134;Laerm;25175;50.140;18.990;2023-01-16T02:57:58;40.11;36.01;61.63;;
77134;Laerm;25175;50.140;18.990;2023-01-16T03:01:04;44.22;37.08;52.67;;
77134;Laerm;25175;50.140;18.990;2023-01-16T03:04:49;41.28;35.64;50.81;;
77134;Laerm;25175;50.140;18.990;2023-01-16T03:08:24;39.73;35.48;64.27;;
77134;Laerm;25175;50.140;18.990;2023-01-16T03:11:47;38.25;34.65;45.68;;
77134;Laerm;25175;50.140;18.990;2023-01-16T03:15:09;37.54;34.65;41.57;;
77134;Laerm;25175;50.140;18.990;2023-01-16T03:18:34;38.67;35.17;47.41;;
77134;Laerm;25175;50.140;18.990;2023-01-16T03:22:06;38.42;35.35;43.22;;
77134;Laerm;25175;50.140;18.990;2023-01-16T03:25:27;38.18;35.30;47.44;;
77134;Laerm;25175;50.140;18.990;2023-01-16T03:28:54;38.38;35.42;43.84;;
77134;Laerm;25175;50.140;18.990;2023-01-16T03:32:12;39.89;35.13;57.29;;
77134;Laerm;25175;50.140;18.990;2023-01-16T03:35:29;41.35;34.69;57.62;;
77134;Laerm;25175;50.140;18.990;2023-01-16T03:38:43;38.04;35.11;41.39;;
77134;Laerm;25175;50.140;18.990;2023-01-16T03:41:57;37.79;34.98;44.46;;
77134;Laerm;25175;50.140;18.990;2023-01-16T03:45:13;38.98;34.53;51.60;;
77134;Laerm;25175;50.140;18.990;2023-01-16T03:48:31;39.34;35.13;51.68;;
77134;Laerm;25175;50.140;18.990;2023-01-16T03:51:46;38.65;35.68;44.91;;
77134;Laerm;25175;50.140;18.990;2023-01-16T03:55:05;39.99;36.13;53.44;;
77134;Laerm;25175;50.140;18.990;2023-01-16T03:58:23;42.50;35.96;62.36;;
77134;Laerm;25175;50.140;18.990;2023-01-16T04:01:39;39.92;36.83;53.57;;
77134;Laerm;25175;50.140;18.990;2023-01-16T04:04:57;45.35;36.27;60.86;;
77134;Laerm;25175;50.140;18.990;2023-01-16T04:08:13;38.74;35.52;44.38;;
77134;Laerm;25175;50.140;18.990;2023-01-16T04:11:25;41.51;36.60;53.90;;
77134;Laerm;25175;50.140;18.990;2023-01-16T04:14:33;39.73;37.01;48.23;;
77134;Laerm;25175;50.140;18.990;2023-01-16T04:17:41;42.47;37.21;59.04;;
77134;Laerm;25175;50.140;18.990;2023-01-16T04:20:50;44.44;37.45;58.14;;
77134;Laerm;25175;50.140;18.990;2023-01-16T04:23:58;41.86;37.67;54.47;;
77134;Laerm;25175;50.140;18.990;2023-01-16T04:27:07;44.41;37.53;58.86;;
77134;Laerm;25175;50.140;18.990;2023-01-16T04:30:15;42.32;38.11;52.10;;
77134;Laerm;25175;50.140;18.990;2023-01-16T04:33:20;42.36;38.21;52.61;;
77134;Laerm;25175;50.140;18.990;2023-01-16T04:36:25;43.77;37.92;54.54;;
77134;Laerm;25175;50.140;18.990;2023-01-16T04:39:30;43.97;37.41;54.69;;
77134;Laerm;25175;50.140;18.990;2023-01-16T04:42:38;45.48;36.63;60.47;;
77134;Laerm;25175;50.140;18.990;2023-01-16T04:45:43;42.89;38.46;52.83;;
77134;Laerm;25175;50.140;18.990;2023-01-16T04:48:50;44.58;38.90;56.83;;
77134;Laerm;25175;50.140;18.990;2023-01-16T04:51:56;42.73;38.34;53.17;;
77134;Laerm;25175;50.140;18.990;2023-01-16T04:55:02;41.42;37.89;48.37;;
77134;Laerm;25175;50.140;18.990;2023-01-16T04:58:09;41.40;37.65;49.48;;
77134;Laerm;25175;50.140;18.990;2023-01-16T05:01:14;43.85;37.90;57.37;;
77134;Laerm;25175;50.140;18.990;2023-01-16T05:04:18;42.45;37.62;56.65;;
77134;Laerm;25175;50.140;18.990;2023-01-16T05:07:23;43.32;37.57;54.22;;
77134;Laerm;25175;50.140;18.990;2023-01-16T05:10:28;44.71;38.03;55.39;;
77134;Laerm;25175;50.140;18.990;2023-01-16T05:13:37;43.62;38.44;55.25;;
77134;Laerm;25175;50.140;18.990;2023-01-16T05:16:42;42.86;37.80;55.09;;
77134;Laerm;25175;50.140;18.990;2023-01-16T05:19:47;44.00;38.52;54.44;;
77134;Laerm;25175;50.140;18.990;2023-01-16T05:22:51;43.65;38.56;53.99;;
77134;Laerm;25175;50.140;18.990;2023-01-16T05:25:56;41.75;37.95;49.89;;
77134;Laerm;25175;50.140;18.990;2023-01-16T05:29:03;44.99;38.58;57.49;;
77134;Laerm;25175;50.140;18.990;2023-01-16T05:32:08;42.25;38.74;51.88;;
77134;Laerm;25175;50.140;18.990;2023-01-16T05:35:14;46.60;39.41;60.46;;
77134;Laerm;25175;50.140;18.990;2023-01-16T05:38:22;44.28;38.80;56.67;;
77134;Laerm;25175;50.140;18.990;2023-01-16T05:41:27;45.64;38.99;57.27;;
77134;Laerm;25175;50.140;18.990;2023-01-16T05:44:35;45.87;40.01;55.98;;
77134;Laerm;25175;50.140;18.990;2023-01-16T05:47:39;45.20;39.79;57.89;;
77134;Laerm;25175;50.140;18.990;2023-01-16T05:50:45;45.08;39.34;58.33;;
77134;Laerm;25175;50.140;18.990;2023-01-16T05:53:50;46.39;39.94;57.80;;
77134;Laerm;25175;50.140;18.990;2023-01-16T05:56:55;45.08;39.86;55.37;;
77134;Laerm;25175;50.140;18.990;2023-01-16T06:00:04;44.84;39.81;54.89;;
77134;Laerm;25175;50.140;18.990;2023-01-16T06:03:11;45.16;38.82;58.45;;
77134;Laerm;25175;50.140;18.990;2023-01-16T06:06:17;44.34;39.08;53.99;;
77134;Laerm;25175;50.140;18.990;2023-01-16T06:09:22;46.62;39.17;57.57;;
77134;Laerm;25175;50.140;18.990;2023-01-16T06:12:26;46.28;39.43;59.60;;
77134;Laerm;25175;50.140;18.990;2023-01-16T06:15:36;46.19;39.30;61.04;;
77134;Laerm;25175;50.140;18.990;2023-01-16T06:18:43;45.13;39.12;57.87;;
77134;Laerm;25175;50.140;18.990;2023-01-16T06:21:49;46.59;39.69;56.84;;
77134;Laerm;25175;50.140;18.990;2023-01-16T06:24:53;47.04;40.05;57.01;;
77134;Laerm;25175;50.140;18.990;2023-01-16T06:27:58;47.86;40.48;61.70;;
77134;Laerm;25175;50.140;18.990;2023-01-16T06:31:06;45.69;40.15;56.04;;
77134;Laerm;25175;50.140;18.990;2023-01-16T06:34:12;47.29;40.89;57.22;;
77134;Laerm;25175;50.140;18.990;2023-01-16T06:37:17;46.61;41.16;54.46;;
77134;Laerm;25175;50.140;18.990;2023-01-16T06:40:22;46.92;40.36;54.65;;
77134;Laerm;25175;50.140;18.990;2023-01-16T06:43:28;47.51;41.00;56.98;;
77134;Laerm;25175;50.140;18.990;2023-01-16T06:46:36;47.14;41.90;58.51;;
77134;Laerm;25175;50.140;18.990;2023-01-16T06:49:42;47.24;41.38;57.44;;
77134;Laerm;25175;50.140;18.990;2023-01-16T06:52:47;47.54;40.97;56.16;;
77134;Laerm;25175;50.140;18.990;2023-01-16T06:55:52;50.20;40.75;62.95;;
77134;Laerm;25175;50.140;18.990;2023-01-16T06:58:57;49.29;42.07;58.10;;
77134;Laerm;25175;50.140;18.990;2023-01-16T07:02:07;48.96;42.25;63.57;;
77134;Laerm;25175;50.140;18.990;2023-01-16T07:05:13;50.38;41.87;61.59;;
77134;Laerm;25175;50.140;18.990;2023-01-16T07:08:17;46.74;40.31;58.75;;
77134;Laerm;25175;50.140;18.990;2023-01-16T07:11:22;46.81;40.96;57.68;;
77134;Laerm;25175;50.140;18.990;2023-01-16T07:14:27;48.62;41.44;59.06;;
77134;Laerm;25175;50.140;18.990;2023-01-16T07:17:47;49.93;40.09;65.14;;
77134;Laerm;25175;50.140;18.990;2023-01-16T07:21:10;48.64;40.84;60.23;;
77134;Laerm;25175;50.140;18.990;2023-01-16T07:24:36;47.63;41.30;64.08;;
77134;Laerm;25175;50.140;18.990;2023-01-16T07:27:46;47.82;40.97;66.41;;
77134;Laerm;25175;50.140;18.990;2023-01-16T07:30:53;46.52;39.82;60.10;;
77134;Laerm;25175;50.140;18.990;2023-01-16T07:34:01;47.36;40.18;59.00;;
77134;Laerm;25175;50.140;18.990;2023-01-16T07:37:06;45.74;40.90;56.75;;
77134;Laerm;25175;50.140;18.990;2023-01-16T07:40:13;50.47;40.87;68.21;;
77134;Laerm;25175;50.140;18.990;2023-01-16T07:43:18;49.17;39.96;60.17;;
77134;Laerm;25175;50.140;18.990;2023-01-16T07:46:23;50.87;41.06;61.04;;
77134;Laerm;25175;50.140;18.990;2023-01-16T07:49:31;47.49;41.20;56.72;;
77134;Laerm;25175;50.140;18.990;2023-01-16T07:52:36;48.62;41.98;60.99;;
77134;Laerm;25175;50.140;18.990;2023-01-16T07:55:41;48.11;41.47;58.24;;
77134;Laerm;25175;50.140;18.990;2023-01-16T07:58:47;46.44;41.08;57.36;;
77134;Laerm;25175;50.140;18.990;2023-01-16T08:01:56;47.67;40.09;65.23;;
77134;Laerm;25175;50.140;18.990;2023-01-16T08:05:07;52.28;39.56;62.96;;
77134;Laerm;25175;50.140;18.990;2023-01-16T08:08:13;52.69;39.25;63.49;;
77134;Laerm;25175;50.140;18.990;2023-01-16T08:11:18;45.27;38.60;60.04;;
77134;Laerm;25175;50.140;18.990;2023-01-16T08:14:35;46.56;39.14;58.33;;
77134;Laerm;25175;50.140;18.990;2023-01-16T08:17:43;45.02;39.25;55.75;;
77134;Laerm;25175;50.140;18.990;2023-01-16T08:20:51;44.99;39.33;56.62;;
77134;Laerm;25175;50.140;18.990;2023-01-16T08:23:55;47.17;39.20;56.36;;
77134;Laerm;25175;50.140;18.990;2023-01-16T08:27:01;48.38;39.40;60.91;;
77134;Laerm;25175;50.140;18.990;2023-01-16T08:30:09;46.54;39.97;56.77;;
77134;Laerm;25175;50.140;18.990;2023-01-16T08:33:14;53.05;39.80;70.05;;
77134;Laerm;25175;50.140;18.990;2023-01-16T08:36:22;51.61;40.13;72.03;;
77134;Laerm;25175;50.140;18.990;2023-01-16T08:39:27;56.41;40.43;77.63;;
77134;Laerm;25175;50.140;18.990;2023-01-16T08:42:31;48.15;39.21;70.78;;
77134;Laerm;25175;50.140;18.990;2023-01-16T08:46:02;55.25;38.58;75.67;;
77134;Laerm;25175;50.140;18.990;2023-01-16T08:49:19;52.92;39.00;74.04;;
77134;Laerm;25175;50.140;18.990;2023-01-16T08:52:41;55.67;38.24;75.67;;
77134;Laerm;25175;50.140;18.990;2023-01-16T08:55:46;54.33;38.20;64.53;;
77134;Laerm;25175;50.140;18.990;2023-01-16T08:58:51;53.04;39.11;64.91;;
77134;Laerm;25175;50.140;18.990;2023-01-16T09:01:55;52.96;39.26;65.79;;
77134;Laerm;25175;50.140;18.990;2023-01-16T09:05:01;50.45;39.85;62.84;;
77134;Laerm;25175;50.140;18.990;2023-01-16T09:08:08;49.76;40.16;62.80;;
77134;Laerm;25175;50.140;18.990;2023-01-16T09:11:13;53.56;39.65;68.25;;
77134;Laerm;25175;50.140;18.990;2023-01-16T09:14:30;48.58;38.14;63.17;;
77134;Laerm;25175;50.140;18.990;2023-01-16T09:17:35;45.58;38.77;59.43;;
77134;Laerm;25175;50.140;18.990;2023-01-16T09:20:40;44.17;38.14;62.25;;
77134;Laerm;25175;50.140;18.990;2023-01-16T09:23:47;45.77;38.79;57.11;;
77134;Laerm;25175;50.140;18.990;2023-01-16T09:26:52;43.91;37.55;65.17;;
77134;Laerm;25175;50.140;18.990;2023-01-16T09:29:57;45.40;37.04;58.25;;
77134;Laerm;25175;50.140;18.990;2023-01-16T09:33:01;46.37;37.75;60.41;;
77134;Laerm;25175;50.140;18.990;2023-01-16T09:36:08;45.03;36.74;60.07;;
77134;Laerm;25175;50.140;18.990;2023-01-16T09:39:15;45.00;37.69;55.32;;
77134;Laerm;25175;50.140;18.990;2023-01-16T09:42:55;54.07;37.37;72.51;;
77134;Laerm;25175;50.140;18.990;2023-01-16T09:46:20;56.04;37.43;72.87;;
77134;Laerm;25175;50.140;18.990;2023-01-16T09:49:39;55.90;38.20;70.75;;
77134;Laerm;25175;50.140;18.990;2023-01-16T09:52:49;48.54;37.26;70.48;;
77134;Laerm;25175;50.140;18.990;2023-01-16T09:56:11;46.09;37.48;65.31;;
77134;Laerm;25175;50.140;18.990;2023-01-16T09:59:35;52.03;37.51;75.90;;
77134;Laerm;25175;50.140;18.990;2023-01-16T10:02:42;50.11;37.52;72.45;;
77134;Laerm;25175;50.140;18.990;2023-01-16T10:05:56;46.77;37.65;61.59;;
77134;Laerm;25175;50.140;18.990;2023-01-16T10:09:20;46.31;37.46;61.12;;
77134;Laerm;25175;50.140;18.990;2023-01-16T10:12:34;45.22;37.39;59.04;;
77134;Laerm;25175;50.140;18.990;2023-01-16T10:15:56;47.19;37.00;60.84;;
77134;Laerm;25175;50.140;18.990;2023-01-16T10:19:18;44.12;36.73;56.76;;
77134;Laerm;25175;50.140;18.990;2023-01-16T10:22:47;46.56;36.48;62.42;;
77134;Laerm;25175;50.140;18.990;2023-01-16T10:26:06;47.90;37.22;65.55;;
77134;Laerm;25175;50.140;18.990;2023-01-16T10:29:25;45.13;36.42;61.49;;
77134;Laerm;25175;50.140;18.990;2023-01-16T10:32:43;48.30;36.44;66.38;;
77134;Laerm;25175;50.140;18.990;2023-01-16T10:35:53;49.84;37.12;71.23;;
77134;Laerm;25175;50.140;18.990;2023-01-16T10:39:03;46.37;35.88;63.51;;
77134;Laerm;25175;50.140;18.990;2023-01-16T10:42:13;43.00;36.20;63.17;;
77134;Laerm;25175;50.140;18.990;2023-01-16T10:45:36;52.88;36.78;70.11;;
77134;Laerm;25175;50.140;18.990;2023-01-16T10:48:54;50.55;37.21;69.62;;
77134;Laerm;25175;50.140;18.990;2023-01-16T10:52:13;46.70;36.53;73.55;;
77134;Laerm;25175;50.140;18.990;2023-01-16T10:55:18;49.39;37.68;69.94;;
77134;Laerm;25175;50.140;18.990;2023-01-16T10:58:27;45.63;37.01;59.40;;
77134;Laerm;25175;50.140;18.990;2023-01-16T11:01:37;43.50;36.46;56.38;;
77134;Laerm;25175;50.140;18.990;2023-01-16T11:04:43;47.11;35.38;61.98;;
77134;Laerm;25175;50.140;18.990;2023-01-16T11:07:52;44.18;35.78;55.28;;
77134;Laerm;25175;50.140;18.990;2023-01-16T11:10:56;45.25;36.18;56.90;;
77134;Laerm;25175;50.140;18.990;2023-01-16T11:14:13;46.64;35.51;61.80;;
77134;Laerm;25175;50.140;18.990;2023-01-16T11:17:37;45.19;35.38;63.66;;
77134;Laerm;25175;50.140;18.990;2023-01-16T11:20:55;49.90;36.77;70.03;;
77134;Laerm;25175;50.140;18.990;2023-01-16T11:24:14;44.64;35.57;60.95;;
77134;Laerm;25175;50.140;18.990;2023-01-16T11:27:28;45.19;35.82;57.89;;
77134;Laerm;25175;50.140;18.990;2023-01-16T11:30:39;53.98;36.16;79.06;;
77134;Laerm;25175;50.140;18.990;2023-01-16T11:33:54;45.06;36.35;57.04;;
77134;Laerm;25175;50.140;18.990;2023-01-16T11:37:06;46.75;36.15;61.13;;
77134;Laerm;25175;50.140;18.990;2023-01-16T11:40:20;45.20;36.13;61.28;;
77134;Laerm;25175;50.140;18.990;2023-01-16T11:43:29;44.83;35.56;58.57;;
77134;Laerm;25175;50.140;18.990;2023-01-16T11:46:50;44.38;35.16;60.03;;
77134;Laerm;25175;50.140;18.990;2023-01-16T11:50:28;44.67;35.83;55.50;;
77134;Laerm;25175;50.140;18.990;2023-01-16T11:53:35;44.81;36.07;57.57;;
77134;Laerm;25175;50.140;18.990;2023-01-16T11:56:57;45.09;36.22;55.47;;
77134;Laerm;25175;50.140;18.990;2023-01-16T12:00:33;43.99;34.79;55.77;;
77134;Laerm;25175;50.140;18.990;2023-01-16T12:04:02;44.53;34.86;58.79;;
77134;Laerm;25175;50.140;18.990;2023-01-16T12:07:23;45.50;34.66;60.03;;
77134;Laerm;25175;50.140;18.990;2023-01-16T12:10:46;47.75;36.02;62.52;;
77134;Laerm;25175;50.140;18.990;2023-01-16T12:14:08;43.72;34.84;56.80;;
77134;Laerm;25175;50.140;18.990;2023-01-16T12:17:43;44.94;35.75;62.00;;
77134;Laerm;25175;50.140;18.990;2023-01-16T12:21:00;47.38;35.42;65.95;;
77134;Laerm;25175;50.140;18.990;2023-01-16T12:24:39;47.99;37.01;62.60;;
77134;Laerm;25175;50.140;18.990;2023-01-16T12:28:06;44.24;35.75;56.61;;
77134;Laerm;25175;50.140;18.990;2023-01-16T12:31:35;43.58;36.35;59.34;;
77134;Laerm;25175;50.140;18.990;2023-01-16T12:35:28;46.65;35.77;63.16;;
77134;Laerm;25175;50.140;18.990;2023-01-16T12:38:46;48.27;36.75;59.18;;
77134;Laerm;25175;50.140;18.990;2023-01-16T12:42:19;46.07;35.45;58.20;;
77134;Laerm;25175;50.140;18.990;2023-01-16T12:45:49;45.72;36.00;57.13;;
77134;Laerm;25175;50.140;18.990;2023-01-16T12:49:21;46.56;36.83;68.91;;
77134;Laerm;25175;50.140;18.990;2023-01-16T12:52:56;44.91;36.31;58.46;;
77134;Laerm;25175;50.140;18.990;2023-01-16T12:56:37;45.22;36.35;58.95;;
77134;Laerm;25175;50.140;18.990;2023-01-16T13:00:04;45.97;35.99;66.53;;
77134;Laerm;25175;50.140;18.990;2023-01-16T13:03:27;45.19;35.71;72.08;;
77134;Laerm;25175;50.140;18.990;2023-01-16T13:06:45;48.01;36.66;65.05;;
77134;Laerm;25175;50.140;18.990;2023-01-16T13:10:01;45.10;37.40;56.49;;
77134;Laerm;25175;50.140;18.990;2023-01-16T13:13:25;47.30;37.38;61.37;;
77134;Laerm;25175;50.140;18.990;2023-01-16T13:16:40;44.46;36.33;70.26;;
77134;Laerm;25175;50.140;18.990;2023-01-16T13:19:52;47.06;37.89;61.75;;
77134;Laerm;25175;50.140;18.990;2023-01-16T13:23:02;50.98;37.83;72.68;;
77134;Laerm;25175;50.140;18.990;2023-01-16T13:26:15;46.07;37.41;61.53;;
77134;Laerm;25175;50.140;18.990;2023-01-16T13:29:31;46.22;36.92;59.25;;
77134;Laerm;25175;50.140;18.990;2023-01-16T13:32:50;43.24;36.32;57.46;;
77134;Laerm;25175;50.140;18.990;2023-01-16T13:36:10;47.52;36.76;62.50;;
77134;Laerm;25175;50.140;18.990;2023-01-16T13:43:24;46.56;36.20;61.26;;
77134;Laerm;25175;50.140;18.990;2023-01-16T13:46:49;44.11;35.58;57.30;;
77134;Laerm;25175;50.140;18.990;2023-01-16T13:50:19;47.04;35.47;58.14;;
77134;Laerm;25175;50.140;18.990;2023-01-16T13:53:29;45.96;37.07;57.75;;
77134;Laerm;25175;50.140;18.990;2023-01-16T13:56:40;42.68;36.56;53.78;;
77134;Laerm;25175;50.140;18.990;2023-01-16T13:59:53;47.76;36.18;65.24;;
77134;Laerm;25175;50.140;18.990;2023-01-16T14:03:19;46.45;37.43;59.73;;
77134;Laerm;25175;50.140;18.990;2023-01-16T14:06:28;46.39;37.33;61.72;;
77134;Laerm;25175;50.140;18.990;2023-01-16T14:13:21;47.68;37.87;64.88;;
77134;Laerm;25175;50.140;18.990;2023-01-16T14:16:34;46.00;37.84;66.66;;
77134;Laerm;25175;50.140;18.990;2023-01-16T14:19:41;47.06;39.07;75.96;;
77134;Laerm;25175;50.140;18.990;2023-01-16T14:22:58;46.20;36.69;61.26;;
77134;Laerm;25175;50.140;18.990;2023-01-16T14:26:23;47.57;37.56;61.24;;
77134;Laerm;25175;50.140;18.990;2023-01-16T14:29:44;47.97;38.56;61.79;;
77134;Laerm;25175;50.140;18.990;2023-01-16T14:32:56;49.33;38.68;63.72;;
77134;Laerm;25175;50.140;18.990;2023-01-16T14:36:03;46.91;38.15;57.02;;
77134;Laerm;25175;50.140;18.990;2023-01-16T14:39:32;43.88;38.45;58.16;;
77134;Laerm;25175;50.140;18.990;2023-01-16T14:42:48;46.28;38.46;60.66;;
77134;Laerm;25175;50.140;18.990;2023-01-16T14:46:30;47.27;37.98;60.92;;
77134;Laerm;25175;50.140;18.990;2023-01-16T14:50:05;46.47;38.47;57.75;;
77134;Laerm;25175;50.140;18.990;2023-01-16T14:53:28;48.61;38.51;63.55;;
77134;Laerm;25175;50.140;18.990;2023-01-16T14:56:57;47.09;38.28;62.18;;
77134;Laerm;25175;50.140;18.990;2023-01-16T15:00:11;45.20;37.33;58.28;;
77134;Laerm;25175;50.140;18.990;2023-01-16T15:03:29;46.38;36.93;56.86;;
77134;Laerm;25175;50.140;18.990;2023-01-16T15:06:50;46.24;38.35;55.20;;
77134;Laerm;25175;50.140;18.990;2023-01-16T15:10:02;45.43;37.57;58.57;;
77134;Laerm;25175;50.140;18.990;2023-01-16T15:13:22;51.49;37.66;69.42;;
77134;Laerm;25175;50.140;18.990;2023-01-16T15:16:31;53.66;37.41;76.82;;
77134;Laerm;25175;50.140;18.990;2023-01-16T15:20:05;46.86;38.01;59.61;;
77134;Laerm;25175;50.140;18.990;2023-01-16T15:23:27;46.52;37.34;61.42;;
77134;Laerm;25175;50.140;18.990;2023-01-16T15:26:49;47.40;38.25;61.39;;
77134;Laerm;25175;50.140;18.990;2023-01-16T15:30:06;47.30;37.29;63.35;;
77134;Laerm;25175;50.140;18.990;2023-01-16T15:33:24;48.13;36.48;61.17;;
77134;Laerm;25175;50.140;18.990;2023-01-16T15:36:44;47.80;37.26;64.16;;
77134;Laerm;25175;50.140;18.990;2023-01-16T15:39:50;43.92;37.45;59.74;;
77134;Laerm;25175;50.140;18.990;2023-01-16T15:42:57;44.32;37.50;54.74;;
77134;Laerm;25175;50.140;18.990;2023-01-16T15:46:31;43.41;37.24;54.29;;
77134;Laerm;25175;50.140;18.990;2023-01-16T15:50:15;44.25;36.74;58.74;;
77134;Laerm;25175;50.140;18.990;2023-01-16T15:53:24;43.83;37.85;56.85;;
77134;Laerm;25175;50.140;18.990;2023-01-16T15:56:37;45.01;37.39;65.48;;
77134;Laerm;25175;50.140;18.990;2023-01-16T15:59:52;43.74;37.94;58.14;;
77134;Laerm;25175;50.140;18.990;2023-01-16T16:03:09;46.58;37.90;63.89;;
77134;Laerm;25175;50.140;18.990;2023-01-16T16:06:19;45.73;38.41;61.95;;
77134;Laerm;25175;50.140;18.990;2023-01-16T16:09:28;52.02;38.05;74.11;;
77134;Laerm;25175;50.140;18.990;2023-01-16T16:12:33;46.25;38.95;56.48;;
77134;Laerm;25175;50.140;18.990;2023-01-16T16:15:52;44.29;37.76;58.91;;
77134;Laerm;25175;50.140;18.990;2023-01-16T16:19:30;45.75;38.44;56.90;;
77134;Laerm;25175;50.140;18.990;2023-01-16T16:22:36;46.09;38.24;59.06;;
77134;Laerm;25175;50.140;18.990;2023-01-16T16:25:57;45.81;37.75;56.34;;
77134;Laerm;25175;50.140;18.990;2023-01-16T16:29:05;45.80;38.39;56.00;;
77134;Laerm;25175;50.140;18.990;2023-01-16T16:32:15;44.08;38.45;53.18;;
77134;Laerm;25175;50.140;18.990;2023-01-16T16:35:31;46.67;37.38;59.82;;
77134;Laerm;25175;50.140;18.990;2023-01-16T16:38:46;45.74;38.40;60.27;;
77134;Laerm;25175;50.140;18.990;2023-01-16T16:41:52;43.06;37.49;54.51;;
77134;Laerm;25175;50.140;18.990;2023-01-16T16:45:13;44.70;37.23;56.73;;
77134;Laerm;25175;50.140;18.990;2023-01-16T16:48:29;45.10;37.35;56.05;;
77134;Laerm;25175;50.140;18.990;2023-01-16T16:51:38;45.09;37.53;58.17;;
77134;Laerm;25175;50.140;18.990;2023-01-16T16:54:53;47.10;38.35;60.44;;
77134;Laerm;25175;50.140;18.990;2023-01-16T16:58:01;43.69;36.80;58.10;;
77134;Laerm;25175;50.140;18.990;2023-01-16T17:01:11;47.58;37.25;65.10;;
77134;Laerm;25175;50.140;18.990;2023-01-16T17:04:17;43.88;37.37;56.57;;
77134;Laerm;25175;50.140;18.990;2023-01-16T17:07:25;44.31;37.37;55.51;;
77134;Laerm;25175;50.140;18.990;2023-01-16T17:10:31;43.33;37.20;54.43;;
77134;Laerm;25175;50.140;18.990;2023-01-16T17:13:36;44.33;37.45;53.87;;
77134;Laerm;25175;50.140;18.990;2023-01-16T17:16:41;45.26;37.25;57.00;;
77134;Laerm;25175;50.140;18.990;2023-01-16T17:19:47;46.09;36.88;55.77;;
77134;Laerm;25175;50.140;18.990;2023-01-16T17:22:55;44.27;36.91;55.53;;
77134;Laerm;25175;50.140;18.990;2023-01-16T17:26:00;43.44;37.18;55.60;;
77134;Laerm;25175;50.140;18.990;2023-01-16T17:29:05;46.85;36.98;61.81;;
77134;Laerm;25175;50.140;18.990;2023-01-16T17:32:27;44.93;37.45;57.71;;
77134;Laerm;25175;50.140;18.990;2023-01-16T17:35:34;42.87;37.35;57.18;;
77134;Laerm;25175;50.140;18.990;2023-01-16T17:38:42;50.16;37.49;72.05;;
77134;Laerm;25175;50.140;18.990;2023-01-16T17:41:46;44.31;37.15;58.92;;
77134;Laerm;25175;50.140;18.990;2023-01-16T17:45:27;44.91;37.33;59.90;;
77134;Laerm;25175;50.140;18.990;2023-01-16T17:48:45;44.43;36.44;54.78;;
77134;Laerm;25175;50.140;18.990;2023-01-16T17:51:50;43.98;37.26;58.83;;
77134;Laerm;25175;50.140;18.990;2023-01-16T17:54:57;43.76;37.50;55.33;;